Terminal Aerodrome Forecast
Issued by NWS Quad Cities IA IL

Home | Current Version | Previous Version | Text Only | Print | Product List | Glossary On
Versions: 1 2 3 4 5 6 7 8 9 10 11 12 13 14 15 16 17 18 19 20 21 22 23
000
FTUS43 KDVN 291751
TAFDBQ
TAF
KDBQ 291751Z 2918/3018 04007KT P6SM OVC015
     FM300300 VRB03KT 4SM BR OVC008
     FM300700 VRB03KT 1SM BR OVC005
      TEMPO 3009/3013 1/4SM FG VV001
     FM301500 10004KT 3SM BR BKN008
     FM301700 16004KT P6SM SCT008 BKN020=

USA.gov is the U.S. government's official web portal to all federal, state and local government web resources and services.